createdAt,value
2018-04-10T00:01:52.014Z,72.90
2018-04-10T00:04:21.384Z,67.60
2018-04-10T00:06:51.089Z,72.50
2018-04-10T00:09:21.685Z,68.03
2018-04-10T00:11:51.142Z,72.80
2018-04-10T00:14:20.664Z,70.93
2018-04-10T00:16:50.124Z,66.27
2018-04-10T00:26:09.875Z,73.57
2018-04-10T00:28:39.728Z,83.83
2018-04-10T00:31:09.954Z,83.10
2018-04-10T00:33:39.960Z,77.93
2018-04-10T00:37:00.652Z,83.23
2018-04-10T00:39:31.101Z,77.43
2018-04-10T00:42:01.874Z,81.17
2018-04-10T00:44:31.442Z,71.03
2018-04-10T00:47:01.691Z,78.20
2018-04-10T00:49:32.075Z,82.07
2018-04-10T00:52:01.705Z,84.93
2018-04-10T00:57:53.450Z,73.47
2018-04-10T01:00:32.464Z,80.67
2018-04-10T01:03:06.521Z,70.50
2018-04-10T01:05:41.814Z,64.77
2018-04-10T01:08:16.412Z,61.27
2018-04-10T01:14:07.800Z,57.60
2018-04-10T01:16:37.710Z,51.90
2018-04-10T01:19:15.287Z,57.13
2018-04-10T01:21:57.823Z,51.97
2018-04-10T01:24:28.026Z,46.43
2018-04-10T01:27:00.526Z,56.40
2018-04-10T01:29:30.152Z,46.10
2018-04-10T01:32:01.054Z,42.50
2018-04-10T01:34:30.608Z,53.90
2018-04-10T01:37:00.385Z,49.57
2018-04-10T01:39:32.230Z,47.30
2018-04-10T01:42:08.728Z,54.87
2018-04-10T01:44:41.370Z,51.87
2018-04-10T01:47:16.136Z,58.60
2018-04-10T01:49:58.972Z,53.50
2018-04-10T01:52:34.925Z,54.27
2018-04-10T01:58:04.222Z,66.60
2018-04-10T02:00:40.234Z,61.37
2018-04-10T02:03:11.792Z,61.37
2018-04-10T02:05:43.142Z,67.77
2018-04-10T02:10:55.714Z,60.37
2018-04-10T02:13:28.973Z,65.97
2018-04-10T02:16:01.065Z,61.00
2018-04-10T02:18:33.151Z,63.80
2018-04-10T02:21:05.782Z,71.50
2018-04-10T02:23:37.995Z,74.20
2018-04-10T02:26:09.131Z,68.93
2018-04-10T02:28:39.563Z,75.50
2018-04-10T02:34:29.712Z,72.30
2018-04-10T02:36:59.136Z,83.33
2018-04-10T02:39:30.520Z,91.87
2018-04-10T02:42:00.289Z,83.73
2018-04-10T02:44:29.894Z,83.57
2018-04-10T02:46:59.258Z,97.90
2018-04-10T02:49:28.567Z,88.33
2018-04-10T02:51:58.109Z,100.00
2018-04-10T02:54:27.468Z,101.00
2018-04-10T02:56:56.794Z,103.60
2018-04-10T03:02:53.303Z,100.17
2018-04-10T03:05:22.698Z,380.23
2018-04-10T03:07:52.248Z,80.77
2018-04-10T03:10:21.750Z,73.73
2018-04-10T03:12:51.110Z,81.63
2018-04-10T03:15:20.426Z,81.57
2018-04-10T03:17:50.638Z,80.47
2018-04-10T03:20:19.928Z,83.37
2018-04-10T03:22:49.227Z,77.13
2018-04-10T03:25:18.518Z,91.20
2018-04-10T03:27:48.014Z,95.23
2018-04-10T03:30:45.722Z,87.43
2018-04-10T03:33:15.341Z,91.43
2018-04-10T03:35:44.810Z,84.30
2018-04-10T03:38:14.454Z,83.70
2018-04-10T03:40:43.696Z,82.13
2018-04-10T03:43:13.362Z,87.70
2018-04-10T03:45:43.054Z,84.60
2018-04-10T03:48:17.057Z,85.63
2018-04-10T03:50:46.448Z,78.97
2018-04-10T03:53:16.213Z,85.20
2018-04-10T03:55:46.044Z,83.83
2018-04-10T03:58:15.564Z,88.73
2018-04-10T04:00:45.594Z,88.17
2018-04-10T04:03:14.984Z,93.90
2018-04-10T04:05:45.770Z,100.67
2018-04-10T04:08:15.178Z,94.00
2018-04-10T04:10:45.396Z,93.30
2018-04-10T04:13:15.217Z,101.07
2018-04-10T04:15:44.815Z,90.63
2018-04-10T04:18:26.198Z,89.53
2018-04-10T04:21:08.643Z,96.77
2018-04-10T04:23:40.689Z,109.33
2018-04-10T04:26:11.229Z,82.47
2018-04-10T04:28:44.061Z,98.70
2018-04-10T04:31:16.642Z,81.47
2018-04-10T04:33:51.069Z,106.23
2018-04-10T04:36:20.917Z,85.87
2018-04-10T04:38:51.058Z,89.87
2018-04-10T04:41:20.995Z,102.70
2018-04-10T04:43:50.440Z,77.03
2018-04-10T04:46:20.029Z,84.73
2018-04-10T04:48:49.315Z,88.23
2018-04-10T04:51:19.223Z,96.07
2018-04-10T04:53:49.402Z,89.77
2018-04-10T04:56:19.068Z,94.53
2018-04-10T04:58:49.062Z,89.23
2018-04-10T05:01:18.690Z,85.57
2018-04-10T05:03:48.020Z,88.50
2018-04-10T05:06:17.851Z,86.90
2018-04-10T05:08:47.770Z,89.77
2018-04-10T05:11:17.552Z,86.10
2018-04-10T05:13:47.383Z,85.30
2018-04-10T05:16:16.775Z,94.07
2018-04-10T05:18:46.699Z,81.03
2018-04-10T05:21:16.057Z,90.33
2018-04-10T05:23:45.458Z,81.63
2018-04-10T05:26:15.090Z,85.30
2018-04-10T05:28:44.508Z,361.33
2018-04-10T05:31:15.339Z,82.87
2018-04-10T05:33:44.724Z,83.67
2018-04-10T05:36:14.001Z,81.97
2018-04-10T05:38:43.375Z,89.50
2018-04-10T05:41:13.563Z,81.13
2018-04-10T05:43:43.374Z,92.50
2018-04-10T05:46:12.794Z,93.90
2018-04-10T05:48:42.525Z,91.20
2018-04-10T05:51:12.020Z,91.13
2018-04-10T05:57:13.158Z,106.67
2018-04-10T05:59:42.836Z,110.90
2018-04-10T06:02:13.974Z,101.20
2018-04-10T06:04:43.636Z,93.63
2018-04-10T06:07:14.355Z,87.00
2018-04-10T06:09:44.800Z,93.57
2018-04-10T06:12:14.941Z,93.40
2018-04-10T06:14:45.018Z,115.70
2018-04-10T06:17:16.049Z,83.70
2018-04-10T06:19:45.981Z,91.20
2018-04-10T06:22:16.449Z,92.77
2018-04-10T06:24:46.109Z,93.23
2018-04-10T06:27:16.272Z,88.03
2018-04-10T06:29:46.509Z,86.23
2018-04-10T06:32:16.800Z,97.63
2018-04-10T06:38:07.632Z,90.67
2018-04-10T06:40:37.028Z,96.90
2018-04-10T06:43:07.418Z,93.27
2018-04-10T06:45:37.161Z,101.20
2018-04-10T06:48:06.513Z,86.43
2018-04-10T06:50:35.876Z,115.10
2018-04-10T06:53:05.384Z,95.77
2018-04-10T06:55:34.752Z,99.73
2018-04-10T06:58:04.163Z,99.63
2018-04-10T07:00:33.684Z,104.07
2018-04-10T07:03:03.654Z,103.37
2018-04-10T07:05:33.077Z,105.00
2018-04-10T07:08:02.722Z,100.47
2018-04-10T07:10:32.089Z,107.00
2018-04-10T07:13:01.891Z,102.17
2018-04-10T07:15:31.685Z,104.37
2018-04-10T07:18:01.042Z,110.17
2018-04-10T07:20:30.992Z,100.27
2018-04-10T07:23:00.411Z,110.37
2018-04-10T07:25:29.748Z,94.10
2018-04-10T07:27:59.460Z,104.23
2018-04-10T07:30:28.893Z,110.03
2018-04-10T07:32:58.348Z,105.83
2018-04-10T07:35:28.188Z,108.67
2018-04-10T07:37:58.410Z,110.77
2018-04-10T07:40:28.379Z,111.93
2018-04-10T07:42:57.839Z,111.20
2018-04-10T07:45:27.257Z,116.03
2018-04-10T07:47:57.076Z,103.43
2018-04-10T07:50:26.766Z,104.13
2018-04-10T07:52:56.366Z,94.40
2018-04-10T07:55:25.805Z,99.97
2018-04-10T07:57:56.039Z,108.20
2018-04-10T08:00:25.501Z,107.13
2018-04-10T08:02:55.106Z,115.83
2018-04-10T08:05:25.306Z,116.70
2018-04-10T08:07:54.668Z,114.00
2018-04-10T08:10:24.852Z,112.77
2018-04-10T08:12:54.250Z,119.10
2018-04-10T08:15:23.641Z,122.37
2018-04-10T08:17:53.094Z,123.73
2018-04-10T08:20:23.638Z,131.53
2018-04-10T08:22:53.932Z,149.00
2018-04-10T08:25:23.875Z,153.43
2018-04-10T08:27:53.271Z,150.80
2018-04-10T08:30:23.465Z,141.97
2018-04-10T08:32:52.959Z,142.77
2018-04-10T08:35:22.317Z,138.57
2018-04-10T08:37:51.764Z,156.87
2018-04-10T08:40:21.167Z,157.07
2018-04-10T08:42:50.581Z,169.00
2018-04-10T08:45:20.043Z,173.63
2018-04-10T08:47:49.954Z,169.17
2018-04-10T08:50:19.748Z,169.83
2018-04-10T08:52:49.254Z,151.67
2018-04-10T08:55:18.651Z,156.27
2018-04-10T08:57:49.038Z,167.40
2018-04-10T09:00:18.652Z,162.87
2018-04-10T09:02:48.077Z,179.10
2018-04-10T09:05:18.474Z,168.33
2018-04-10T09:07:48.056Z,174.27
2018-04-10T09:10:17.424Z,184.97
2018-04-10T09:12:46.895Z,164.13
2018-04-10T09:15:16.258Z,191.73
2018-04-10T09:21:14.412Z,174.57
2018-04-10T09:23:44.288Z,154.93
2018-04-10T09:26:13.600Z,158.67
2018-04-10T09:28:42.979Z,150.80
2018-04-10T09:31:13.104Z,144.40
2018-04-10T09:34:10.343Z,160.30
2018-04-10T09:36:41.199Z,132.43
2018-04-10T09:39:12.109Z,131.67
2018-04-10T09:41:42.243Z,117.27
2018-04-10T09:47:56.341Z,131.20
2018-04-10T09:50:25.865Z,123.13
2018-04-10T09:52:55.458Z,104.67
2018-04-10T09:55:26.407Z,114.70
2018-04-10T09:57:55.793Z,119.07
2018-04-10T10:00:30.923Z,117.23
2018-04-10T10:03:00.571Z,137.00
2018-04-10T10:05:30.281Z,120.67
2018-04-10T10:08:00.391Z,112.00
2018-04-10T10:13:51.027Z,128.37
2018-04-10T10:16:20.821Z,126.97
2018-04-10T10:18:50.908Z,146.27
2018-04-10T10:21:20.754Z,136.30
2018-04-10T10:23:50.700Z,132.93
2018-04-10T10:26:20.156Z,140.43
2018-04-10T10:28:49.964Z,134.70
2018-04-10T10:31:20.446Z,130.13
2018-04-10T10:37:11.661Z,104.67
2018-04-10T10:39:40.986Z,106.10
2018-04-10T10:42:10.799Z,99.37
2018-04-10T10:44:40.612Z,97.53
2018-04-10T10:50:31.964Z,112.80
2018-04-10T10:53:02.565Z,119.70
2018-04-10T10:55:32.515Z,117.53
2018-04-10T10:58:02.277Z,109.67
2018-04-10T11:00:32.331Z,114.73
2018-04-10T11:03:02.125Z,115.70
2018-04-10T11:05:31.985Z,114.47
2018-04-10T11:08:01.916Z,125.10
2018-04-10T11:10:31.782Z,123.83
2018-04-10T11:13:01.440Z,122.60
2018-04-10T11:15:31.291Z,127.53
2018-04-10T11:18:01.358Z,123.30
2018-04-10T11:20:30.795Z,128.33
2018-04-10T11:23:01.894Z,122.97
2018-04-10T11:25:32.070Z,125.23
2018-04-10T11:28:01.607Z,125.77
2018-04-10T11:30:31.374Z,125.13
2018-04-10T11:33:01.083Z,139.30
2018-04-10T11:35:30.403Z,182.53
2018-04-10T11:38:00.443Z,184.37
2018-04-10T11:40:30.231Z,206.23
2018-04-10T11:43:00.136Z,191.90
2018-04-10T11:45:29.960Z,168.60
2018-04-10T11:47:59.731Z,168.77
2018-04-10T11:50:29.627Z,177.67
2018-04-10T11:52:59.652Z,168.30
2018-04-10T11:55:29.363Z,178.50
2018-04-10T11:57:58.917Z,170.60
2018-04-10T12:00:28.296Z,162.03
2018-04-10T12:02:58.928Z,156.57
2018-04-10T12:05:28.276Z,155.30
2018-04-10T12:07:58.019Z,143.13
2018-04-10T12:10:27.427Z,134.30
2018-04-10T12:12:57.255Z,148.10
2018-04-10T12:15:27.473Z,145.53
2018-04-10T12:17:57.933Z,144.03
2018-04-10T12:20:31.901Z,125.47
2018-04-10T12:23:03.710Z,126.30
2018-04-10T12:25:40.521Z,123.87
2018-04-10T12:31:32.092Z,95.77
2018-04-10T12:34:01.320Z,99.50
2018-04-10T12:36:30.844Z,99.47
2018-04-10T12:39:00.213Z,105.57
2018-04-10T12:41:29.456Z,106.50
2018-04-10T12:43:59.057Z,103.50
2018-04-10T12:46:28.384Z,103.37
2018-04-10T12:48:58.478Z,108.20
2018-04-10T12:51:27.758Z,106.70
2018-04-10T12:53:56.971Z,112.90
2018-04-10T12:56:26.162Z,95.67
2018-04-10T12:58:55.441Z,92.00
2018-04-10T13:01:24.676Z,91.57
2018-04-10T13:03:53.835Z,83.33
2018-04-10T13:06:26.724Z,88.40
2018-04-10T13:09:00.458Z,85.57
2018-04-10T13:14:51.486Z,83.93
2018-04-10T13:17:21.668Z,87.43
2018-04-10T13:19:50.999Z,94.47
2018-04-10T13:22:21.141Z,87.03
2018-04-10T13:24:50.392Z,90.47
2018-04-10T13:27:19.646Z,92.77
2018-04-10T13:29:48.963Z,91.57
2018-04-10T13:32:18.197Z,101.63
2018-04-10T13:34:47.587Z,107.23
2018-04-10T13:37:16.815Z,99.43
2018-04-10T13:39:46.291Z,108.80
2018-04-10T13:42:15.574Z,105.03
2018-04-10T13:44:44.900Z,109.53
2018-04-10T13:47:14.116Z,114.30
2018-04-10T13:49:43.482Z,118.17
2018-04-10T13:52:12.796Z,112.83
2018-04-10T13:54:42.261Z,112.80
2018-04-10T13:57:11.602Z,98.63
2018-04-10T13:59:40.993Z,108.43
2018-04-10T14:02:10.327Z,96.47
2018-04-10T14:04:39.740Z,97.20
2018-04-10T14:07:10.003Z,102.13
2018-04-10T14:09:40.261Z,109.40
2018-04-10T14:12:09.561Z,100.33
2018-04-10T14:14:39.062Z,110.23
2018-04-10T14:17:08.716Z,113.97
2018-04-10T14:19:38.011Z,123.93
2018-04-10T14:22:07.375Z,119.40
2018-04-10T14:24:36.681Z,122.23
2018-04-10T14:27:06.132Z,118.03
2018-04-10T14:29:35.462Z,108.23
2018-04-10T14:32:04.884Z,132.70
2018-04-10T14:34:34.373Z,114.43
2018-04-10T14:37:03.793Z,130.17
2018-04-10T14:39:33.412Z,132.47
2018-04-10T14:42:06.422Z,131.60
2018-04-10T14:44:35.831Z,79.97
2018-04-10T14:47:05.196Z,78.77
2018-04-10T14:49:34.559Z,78.87
2018-04-10T14:52:04.103Z,76.87
2018-04-10T14:54:33.416Z,56.20
2018-04-10T14:57:02.625Z,52.13
2018-04-10T14:59:34.738Z,54.67
2018-04-10T15:02:07.070Z,46.40
2018-04-10T15:04:36.313Z,37.13
2018-04-10T15:07:05.607Z,44.07
2018-04-10T15:09:34.813Z,41.67
2018-04-10T15:12:04.185Z,33.43
2018-04-10T15:14:34.542Z,33.93
2018-04-10T15:17:04.401Z,36.50
2018-04-10T15:19:33.910Z,33.00
2018-04-10T15:22:03.179Z,36.53
2018-04-10T15:24:32.527Z,29.80
2018-04-10T15:27:01.720Z,27.77
2018-04-10T15:29:31.011Z,33.33
2018-04-10T15:32:00.270Z,35.73
2018-04-10T15:34:29.542Z,32.50
2018-04-10T15:36:58.795Z,29.90
2018-04-10T15:39:28.222Z,32.45
2018-04-10T15:41:57.381Z,28.33
2018-04-10T15:47:59.948Z,45.40
2018-04-10T15:50:29.656Z,30.33
2018-04-10T15:52:59.515Z,34.07
2018-04-10T15:55:29.608Z,33.57
2018-04-10T15:57:59.651Z,36.80
2018-04-10T16:00:29.121Z,36.20
2018-04-10T16:02:59.016Z,39.80
2018-04-10T16:05:30.025Z,36.35
2018-04-10T16:07:59.484Z,41.20
2018-04-10T16:10:29.091Z,33.92
2018-04-10T16:12:58.516Z,40.35
2018-04-10T16:15:28.682Z,37.28
2018-04-10T16:17:58.690Z,40.30
2018-04-10T16:20:28.582Z,46.75
2018-04-10T16:22:59.116Z,43.42
2018-04-10T16:28:50.152Z,43.15
2018-04-10T16:31:19.770Z,57.30
2018-04-10T16:33:50.064Z,41.90
2018-04-10T16:36:19.581Z,46.93
2018-04-10T16:38:49.350Z,45.97
2018-04-10T16:41:19.231Z,41.57
2018-04-10T16:43:48.708Z,44.03
2018-04-10T16:46:18.071Z,40.97
2018-04-10T16:48:48.168Z,44.17
2018-04-10T16:51:18.012Z,41.97
2018-04-10T16:53:47.556Z,42.70
2018-04-10T16:56:17.687Z,50.67
2018-04-10T16:58:47.158Z,38.53
2018-04-10T17:01:16.532Z,40.33
2018-04-10T17:03:46.405Z,40.55
2018-04-10T17:06:15.867Z,44.60
2018-04-10T17:08:45.359Z,36.63
2018-04-10T17:11:14.795Z,46.37
2018-04-10T17:13:44.317Z,42.90
2018-04-10T17:16:13.725Z,43.42
2018-04-10T17:18:43.227Z,43.90
2018-04-10T17:21:12.652Z,45.78
2018-04-10T17:26:29.633Z,38.50
2018-04-10T17:29:03.197Z,43.15
2018-04-10T17:31:35.467Z,40.53
2018-04-10T17:34:08.189Z,46.65
2018-04-10T17:36:42.579Z,41.63
2018-04-10T17:39:20.025Z,53.87
2018-04-10T17:41:51.314Z,49.83
2018-04-10T17:44:21.649Z,56.65
2018-04-10T17:46:51.157Z,48.28
2018-04-10T17:49:35.418Z,35.15
2018-04-10T17:52:05.618Z,36.70
2018-04-10T17:54:35.890Z,36.20
2018-04-10T17:57:05.344Z,37.07
2018-04-10T17:59:35.651Z,46.67
2018-04-10T18:02:06.759Z,38.63
2018-04-10T18:04:36.665Z,39.63
2018-04-10T18:07:06.699Z,38.25
2018-04-10T18:09:36.563Z,37.77
2018-04-10T18:12:06.607Z,43.83
2018-04-10T18:14:37.007Z,41.13
2018-04-10T18:17:06.972Z,41.03
2018-04-10T18:19:36.713Z,44.00
2018-04-10T18:22:07.036Z,45.17
2018-04-10T18:24:36.923Z,48.27
2018-04-10T18:27:06.935Z,52.53
2018-04-10T18:29:36.755Z,39.75
2018-04-10T18:32:06.800Z,44.90
2018-04-10T18:34:36.651Z,50.87
2018-04-10T18:37:05.960Z,50.30
2018-04-10T18:39:35.668Z,42.57
2018-04-10T18:42:05.666Z,56.00
2018-04-10T18:44:35.468Z,43.57
2018-04-10T18:47:05.120Z,48.43
2018-04-10T18:49:34.901Z,50.60
2018-04-10T18:55:26.676Z,42.37
2018-04-10T18:57:56.628Z,57.07
2018-04-10T19:00:26.410Z,62.27
2018-04-10T19:02:56.085Z,50.00
2018-04-10T19:05:26.327Z,38.30
2018-04-10T19:07:57.750Z,44.53
2018-04-10T19:10:27.111Z,45.10
2018-04-10T19:12:56.436Z,51.87
2018-04-10T19:15:25.896Z,45.20
2018-04-10T19:17:55.927Z,54.27
2018-04-10T19:20:26.213Z,49.17
2018-04-10T19:22:55.550Z,42.50
2018-04-10T19:25:24.905Z,47.43
2018-04-10T19:28:04.303Z,42.03
2018-04-10T19:30:38.158Z,48.03
2018-04-10T19:33:08.107Z,44.73
2018-04-10T19:35:37.423Z,49.57
2018-04-10T19:38:07.309Z,54.13
2018-04-10T19:40:37.364Z,58.43
2018-04-10T19:43:07.286Z,54.57
2018-04-10T19:45:36.655Z,57.30
2018-04-10T19:48:06.562Z,41.27
2018-04-10T19:50:37.140Z,48.60
2018-04-10T19:53:07.385Z,40.27
2018-04-10T19:55:37.478Z,52.83
2018-04-10T19:58:07.296Z,43.63
2018-04-10T20:00:37.089Z,42.00
2018-04-10T20:03:06.870Z,45.03
2018-04-10T20:05:37.305Z,45.03
2018-04-10T20:08:07.082Z,61.37
2018-04-10T20:10:59.537Z,40.83
2018-04-10T20:13:29.099Z,40.27
2018-04-10T20:16:01.208Z,41.63
2018-04-10T20:18:31.113Z,45.40
2018-04-10T20:21:00.520Z,39.73
2018-04-10T20:23:29.980Z,51.53
2018-04-10T20:25:59.404Z,42.00
2018-04-10T20:28:29.640Z,44.70
2018-04-10T20:30:59.066Z,46.90
2018-04-10T20:33:29.297Z,42.83
2018-04-10T20:42:51.854Z,47.93
2018-04-10T20:45:21.510Z,55.30
2018-04-10T20:47:51.193Z,45.23
2018-04-10T20:50:21.196Z,50.70
2018-04-10T20:52:50.706Z,52.27
2018-04-10T20:55:20.387Z,59.90
2018-04-10T20:57:56.582Z,51.50
2018-04-10T21:00:26.610Z,60.33
2018-04-10T21:02:56.174Z,63.10
2018-04-10T21:05:26.406Z,72.63
2018-04-10T21:07:56.135Z,66.47
2018-04-10T21:10:26.713Z,73.20
2018-04-10T21:12:56.568Z,75.60
2018-04-10T21:15:25.889Z,78.73
2018-04-10T21:17:55.128Z,77.13
2018-04-10T21:20:25.526Z,85.23
2018-04-10T21:22:55.173Z,82.40
2018-04-10T21:25:24.493Z,89.27
2018-04-10T21:27:54.197Z,88.97
2018-04-10T21:30:24.566Z,82.67
2018-04-10T21:32:54.091Z,91.80
2018-04-10T21:35:23.542Z,93.60
2018-04-10T21:37:53.258Z,91.33
2018-04-10T21:40:23.564Z,86.50
2018-04-10T21:42:58.085Z,85.23
2018-04-10T21:45:27.623Z,87.53
2018-04-10T21:47:56.910Z,82.87
2018-04-10T21:50:26.987Z,92.43
2018-04-10T21:52:57.113Z,85.27
2018-04-10T21:55:26.322Z,84.63
2018-04-10T21:57:55.628Z,81.07
2018-04-10T22:00:25.426Z,93.67
2018-04-10T22:02:54.778Z,83.57
2018-04-10T22:05:24.459Z,85.73
2018-04-10T22:07:54.200Z,81.53
2018-04-10T22:11:01.462Z,86.97
2018-04-10T22:13:30.828Z,89.23
2018-04-10T22:16:01.505Z,90.13
2018-04-10T22:18:30.930Z,86.07
2018-04-10T22:21:00.272Z,86.17
2018-04-10T22:23:30.828Z,93.60
2018-04-10T22:26:00.173Z,91.40
2018-04-10T22:28:30.089Z,95.30
2018-04-10T22:30:59.936Z,93.53
2018-04-10T22:33:29.877Z,93.23
2018-04-10T22:39:31.562Z,100.90
2018-04-10T22:42:02.578Z,102.93
2018-04-10T22:44:32.228Z,99.57
2018-04-10T22:47:02.306Z,85.77
2018-04-10T22:49:32.570Z,88.17
2018-04-10T22:52:01.846Z,94.10
2018-04-10T22:54:33.285Z,93.27
2018-04-10T22:57:02.936Z,100.50
2018-04-10T22:59:32.198Z,97.07
2018-04-10T23:02:01.850Z,90.53
2018-04-10T23:04:31.212Z,93.23
2018-04-10T23:07:00.888Z,90.57
2018-04-10T23:09:30.481Z,95.80
2018-04-10T23:11:59.947Z,105.70
2018-04-10T23:14:29.241Z,98.20
2018-04-10T23:20:20.585Z,94.00
2018-04-10T23:22:50.653Z,99.83
2018-04-10T23:28:41.958Z,102.73
2018-04-10T23:31:12.457Z,100.07
2018-04-10T23:33:42.624Z,101.30
2018-04-10T23:36:12.301Z,102.57
2018-04-10T23:38:42.332Z,95.40
2018-04-10T23:41:12.122Z,109.13
2018-04-10T23:43:43.309Z,96.80
2018-04-10T23:46:18.114Z,93.77
2018-04-10T23:48:49.412Z,87.73
2018-04-10T23:51:19.534Z,86.80
2018-04-10T23:53:49.296Z,83.23
2018-04-10T23:56:20.213Z,83.90
2018-04-10T23:58:50.087Z,81.27
